CST,Max TemperatureF,Mean TemperatureF,Min TemperatureF,Max Dew PointF,MeanDew PointF,Min DewpointF,Max Humidity, Mean Humidity, Min Humidity, Max Sea Level PressureIn, Mean Sea Level PressureIn, Min Sea Level PressureIn, Max VisibilityMiles, Mean VisibilityMiles, Min VisibilityMiles, Max Wind SpeedMPH, Mean Wind SpeedMPH, Max Gust SpeedMPH,PrecipitationIn, CloudCover, Events, WindDirDegrees
2013-2-1,3,-3,-9,0,-9,-18,85,71,50,30.40,30.21,30.07,10,5,1,16,8,21,0.01,6,Snow,94
2013-2-2,10,6,1,5,0,-7,85,76,61,30.25,30.10,29.99,10,6,1,12,4,,0.00,6,Snow,51
2013-2-3,14,10,5,9,5,-2,85,76,61,30.14,30.03,29.99,10,5,1,15,6,24,0.01,7,Snow,310
2013-2-4,15,10,5,9,3,-4,85,73,49,30.13,29.98,29.78,10,6,1,13,6,,0.01,6,Snow,87
2013-2-5,28,19,9,23,16,6,93,79,55,30.12,29.83,29.65,10,6,0,15,7,22,0.04,5,Fog-Snow,268
2013-2-6,24,15,6,19,11,2,92,82,71,30.16,30.07,29.99,8,5,0,10,5,,0.01,5,Fog-Snow,128
2013-2-7,28,24,19,23,20,18,93,79,69,30.29,30.13,30.00,10,6,2,15,7,18,0.00,8,,360
2013-2-8,26,21,16,18,13,11,84,70,55,30.43,30.35,30.27,10,10,9,10,7,,0.00,4,,108
2013-2-9,32,28,25,27,24,19,88,82,74,30.26,30.09,29.97,10,6,4,17,13,23,0.00,8,,154
2013-2-10,35,32,28,32,28,24,96,88,82,29.96,29.52,29.28,10,3,0,15,9,21,0.39,8,Fog-Rain-Snow,94
2013-2-11,30,26,19,29,21,12,93,79,66,30.07,29.67,29.32,10,6,1,24,16,31,0.00,8,Snow,301
2013-2-12,35,26,17,21,16,10,84,71,56,30.07,29.96,29.83,10,10,9,13,7,20,0.00,2,,227
2013-2-13,39,29,19,32,26,16,100,83,57,29.83,29.66,29.57,10,5,1,9,3,,0.11,7,Rain-Snow,174
2013-2-14,33,26,16,31,21,3,93,76,40,30.21,29.83,29.58,10,6,1,23,10,26,0.02,5,Snow,331
2013-2-15,18,12,7,5,1,-1,73,60,47,30.35,30.30,30.22,10,10,10,16,11,,0.00,1,,306
2013-2-16,17,10,3,5,2,-1,84,71,56,30.31,30.24,30.17,10,9,7,8,4,,0.00,3,,193
2013-2-17,30,19,8,20,12,3,80,69,61,30.17,29.96,29.68,10,10,8,17,11,23,0.00,2,,139
2013-2-18,34,22,10,29,18,2,86,75,67,29.83,29.63,29.53,10,8,3,24,11,31,0.00,6,Snow,233
2013-2-19,10,6,3,3,-3,-8,73,64,53,30.42,30.07,29.82,10,8,2,26,20,37,0.00,3,Snow,311
2013-2-20,17,8,-2,2,-3,-9,76,63,50,30.53,30.48,30.42,10,10,10,10,7,,0.00,0,,342
2013-2-21,21,14,6,10,5,-1,73,62,54,30.50,30.36,30.14,10,10,10,12,5,,0.00,1,,69
2013-2-22,28,24,19,20,18,12,93,81,66,30.10,29.95,29.87,10,3,0,10,6,,0.08,8,Fog-Snow,7
2013-2-23,30,24,19,23,19,16,93,80,64,30.00,29.90,29.86,10,7,5,10,5,,0.00,8,,256
2013-2-24,32,21,10,20,15,9,100,79,59,30.14,30.09,30.00,10,6,2,8,1,,0.00,3,,169
2013-2-25,36,28,19,25,21,18,100,81,59,30.14,30.10,30.05,7,4,0,8,1,,0.00,4,Fog,146
2013-2-26,37,27,17,25,21,16,96,79,62,30.09,29.99,29.90,10,5,1,14,3,22,0.00,3,,343
2013-2-27,37,32,28,24,23,19,79,69,57,30.04,29.93,29.88,10,10,10,18,10,24,0.00,4,,353
2013-2-28,30,28,25,21,18,14,72,65,60,30.26,30.17,30.06,10,10,10,16,10,22,0.00,8,,9